createdAt,value
2022-10-22T00:18:30.558Z,20.8
2022-10-22T00:48:30.511Z,20.8
2022-10-22T01:18:30.691Z,20.8
2022-10-22T01:48:30.528Z,20.8
2022-10-22T02:18:30.533Z,20.8
2022-10-22T02:48:30.528Z,20.8
2022-10-22T03:18:30.632Z,20.8
2022-10-22T03:48:30.252Z,20.8
2022-10-22T04:18:30.514Z,20.7
2022-10-22T04:48:30.524Z,20.7
2022-10-22T05:18:30.510Z,20.7
2022-10-22T05:48:30.534Z,20.7
2022-10-22T06:18:30.527Z,20.8
2022-10-22T06:48:30.642Z,21.5
2022-10-22T07:18:30.689Z,21.4
2022-10-22T07:48:30.502Z,21.4
2022-10-22T08:18:30.590Z,21.4
2022-10-22T08:48:30.611Z,21.4
2022-10-22T09:18:30.550Z,21.3
2022-10-22T09:48:30.642Z,21.3
2022-10-22T10:18:30.526Z,21.3
2022-10-22T10:48:30.485Z,21.3
2022-10-22T11:18:30.514Z,21.2
2022-10-22T11:48:30.483Z,21.2
2022-10-22T12:18:30.488Z,21.2
2022-10-22T12:48:30.495Z,21.1
2022-10-22T13:18:30.498Z,21.2
2022-10-22T13:48:30.501Z,21.2
2022-10-22T14:18:30.499Z,21.2
2022-10-22T14:48:30.529Z,21.1
2022-10-22T15:18:30.534Z,21.1
2022-10-22T15:48:30.483Z,21.1
2022-10-22T16:18:30.550Z,21.1
2022-10-22T16:48:30.506Z,21.2
2022-10-22T17:18:30.493Z,21.2
2022-10-22T17:48:30.515Z,21.2
2022-10-22T18:18:30.459Z,21.2
2022-10-22T18:48:30.457Z,21.2
2022-10-22T19:18:30.497Z,21.2
2022-10-22T19:48:30.593Z,21.2
2022-10-22T20:18:30.558Z,21.2
2022-10-22T20:48:30.574Z,21.1
2022-10-22T21:18:30.516Z,21.1
2022-10-22T21:48:30.487Z,21.0
2022-10-22T22:18:30.505Z,20.9
2022-10-22T22:48:30.469Z,20.8
2022-10-22T23:18:30.450Z,20.8
2022-10-22T23:48:30.498Z,20.7
